Time;durP1;ratioP1;P1;durP2;ratioP2;P2;SDS_P1;SDS_P2;PMS_P1;PMS_P2;Temp;Humidity;BMP_temperature;BMP_pressure;BME280_temperature;BME280_humidity;BME280_pressure;Samples;Min_cycle;Max_cycle;Signal;HPM_P1;HPM_P2
2022/04/08 00:01:29;;;;;;;3.05;1.08;;;6.40;99.90;;;;;;4974590;28;20116;-86
2022/04/08 00:03:55;;;;;;;3.85;1.02;;;6.40;99.90;;;;;;4980189;28;20437;-86
2022/04/08 00:06:20;;;;;;;3.53;1.35;;;6.40;99.90;;;;;;4974237;28;20026;-86
2022/04/08 00:08:47;;;;;;;3.80;1.50;;;6.30;99.90;;;;;;4983866;28;20034;-86
2022/04/08 00:11:12;;;;;;;4.50;1.05;;;6.30;99.90;;;;;;4980355;28;20433;-86
2022/04/08 00:13:38;;;;;;;5.47;1.30;;;6.30;99.90;;;;;;4976348;28;20037;-86
2022/04/08 00:16:04;;;;;;;7.82;1.20;;;6.30;99.90;;;;;;4975958;28;20033;-86
2022/04/08 00:18:30;;;;;;;9.85;2.35;;;6.30;99.90;;;;;;4980945;28;20113;-86
2022/04/08 00:20:56;;;;;;;10.13;1.20;;;6.30;99.90;;;;;;4983046;28;20034;-87
2022/04/08 00:23:21;;;;;;;4.75;1.20;;;6.30;99.90;;;;;;4997753;28;20022;-86
2022/04/08 00:25:47;;;;;;;3.88;0.98;;;6.20;99.90;;;;;;4982563;28;20037;-86
2022/04/08 00:28:12;;;;;;;10.63;1.80;;;6.20;99.90;;;;;;4982807;28;20048;-87
2022/04/08 00:30:38;;;;;;;6.70;1.50;;;6.20;99.90;;;;;;4979067;28;20216;-86
2022/04/08 00:33:04;;;;;;;4.75;1.38;;;6.20;99.90;;;;;;4999539;28;20207;-87
2022/04/08 00:35:29;;;;;;;5.75;1.20;;;6.10;99.90;;;;;;4985596;28;20523;-86
2022/04/08 00:37:56;;;;;;;5.38;1.30;;;6.10;99.90;;;;;;4981996;28;20018;-87
2022/04/08 00:40:22;;;;;;;6.43;1.70;;;6.10;99.90;;;;;;4999653;28;20432;-87
2022/04/08 00:42:47;;;;;;;8.88;1.38;;;5.90;99.90;;;;;;4982309;28;20026;-87
2022/04/08 00:45:13;;;;;;;8.43;1.98;;;6.00;99.90;;;;;;4981594;28;20026;-87
2022/04/08 00:47:41;;;;;;;7.70;1.75;;;6.00;99.90;;;;;;4989762;28;20081;-87
2022/04/08 00:50:07;;;;;;;5.07;2.22;;;6.00;99.90;;;;;;4992261;28;20066;-86
2022/04/08 00:52:33;;;;;;;9.90;2.33;;;5.90;99.90;;;;;;4980200;28;20084;-87
2022/04/08 00:54:59;;;;;;;7.57;1.92;;;5.90;99.90;;;;;;4994243;28;20029;-87
2022/04/08 00:57:28;;;;;;;8.48;1.83;;;5.90;99.90;;;;;;4986300;28;20416;-87
2022/04/08 00:59:54;;;;;;;6.03;2.28;;;5.90;99.90;;;;;;4991894;28;20032;-87
2022/04/08 01:02:20;;;;;;;5.30;1.73;;;5.80;99.90;;;;;;4986484;28;20021;-87
2022/04/08 01:04:45;;;;;;;13.50;3.17;;;5.80;99.90;;;;;;4989816;28;20034;-87
2022/04/08 01:07:11;;;;;;;5.90;1.50;;;5.80;99.90;;;;;;4984838;28;20034;-87
2022/04/08 01:09:37;;;;;;;9.82;2.10;;;5.80;99.90;;;;;;4993512;28;20565;-87
2022/04/08 01:12:03;;;;;;;10.75;1.65;;;5.70;99.90;;;;;;4976136;28;20034;-88
2022/04/08 01:14:29;;;;;;;3.83;1.83;;;5.80;99.90;;;;;;4976879;28;20125;-87
2022/04/08 01:16:54;;;;;;;6.10;2.13;;;5.80;99.90;;;;;;4984091;28;20134;-87
2022/04/08 01:19:20;;;;;;;6.60;1.80;;;5.80;99.90;;;;;;4997069;28;20034;-87
2022/04/08 01:21:45;;;;;;;9.38;2.30;;;5.80;99.90;;;;;;4977944;28;20042;-86
2022/04/08 01:24:11;;;;;;;4.85;1.73;;;5.80;99.90;;;;;;4977410;28;20029;-86
2022/04/08 01:26:38;;;;;;;5.60;1.48;;;5.80;99.90;;;;;;4981891;28;20034;-86
2022/04/08 01:29:04;;;;;;;8.43;1.80;;;5.80;99.90;;;;;;4990243;28;20042;-86
2022/04/08 01:31:30;;;;;;;10.18;2.28;;;5.80;99.90;;;;;;4977358;28;20087;-86
2022/04/08 01:33:56;;;;;;;3.38;1.48;;;5.80;99.90;;;;;;4986162;28;20026;-86
2022/04/08 01:36:21;;;;;;;8.30;1.80;;;5.70;99.90;;;;;;4967764;28;20034;-86
2022/04/08 01:38:47;;;;;;;9.35;1.83;;;5.70;99.90;;;;;;4979510;28;20037;-86
2022/04/08 01:41:16;;;;;;;6.22;1.70;;;5.70;99.90;;;;;;4995055;28;20037;-86
2022/04/08 01:43:44;;;;;;;15.27;2.10;;;5.60;99.90;;;;;;4977426;28;20038;-85
2022/04/08 01:46:10;;;;;;;9.63;2.30;;;5.60;99.90;;;;;;4979546;28;20389;-85
2022/04/08 01:48:36;;;;;;;12.88;2.67;;;5.50;99.90;;;;;;4977870;28;20034;-86
2022/04/08 01:51:01;;;;;;;10.43;2.08;;;5.60;99.90;;;;;;4993327;28;20033;-86
2022/04/08 01:53:27;;;;;;;3.35;1.20;;;5.60;99.90;;;;;;4978024;28;20033;-86
2022/04/08 01:55:53;;;;;;;10.13;1.95;;;5.60;99.90;;;;;;4980188;28;20030;-86
2022/04/08 01:58:18;;;;;;;8.88;1.38;;;5.60;99.90;;;;;;4996138;28;20121;-86
2022/04/08 02:00:44;;;;;;;10.18;1.88;;;5.60;99.90;;;;;;4977748;28;20116;-86
2022/04/08 02:03:09;;;;;;;14.85;1.63;;;5.60;99.90;;;;;;4994488;28;20073;-86
2022/04/08 02:05:35;;;;;;;11.80;1.67;;;5.50;99.90;;;;;;4990113;28;20061;-87
2022/04/08 02:08:00;;;;;;;10.27;2.17;;;5.50;99.90;;;;;;4997372;28;20038;-86
2022/04/08 02:10:26;;;;;;;5.45;1.20;;;5.50;99.90;;;;;;4997260;28;20092;-86
2022/04/08 02:12:52;;;;;;;6.45;1.92;;;5.40;99.90;;;;;;4980789;28;20112;-86
2022/04/08 02:15:27;;;;;;;5.85;1.83;;;5.30;99.90;;;;;;4967967;28;20391;-86
2022/04/08 02:17:52;;;;;;;10.13;2.00;;;5.40;99.90;;;;;;4989219;28;20036;-87
2022/04/08 02:20:18;;;;;;;6.30;1.65;;;5.40;99.90;;;;;;4974979;28;20026;-87
2022/04/08 02:22:43;;;;;;;6.05;1.45;;;5.40;99.90;;;;;;4974941;28;20038;-87
2022/04/08 02:25:11;;;;;;;9.85;1.88;;;5.40;99.90;;;;;;4976301;28;20116;-87
2022/04/08 02:27:37;;;;;;;9.65;2.47;;;5.40;99.90;;;;;;4976983;28;20041;-87
2022/04/08 02:30:02;;;;;;;1.98;0.77;;;5.40;99.90;;;;;;4997955;28;20022;-87
2022/04/08 02:32:28;;;;;;;9.73;2.53;;;5.40;99.90;;;;;;4980592;28;20030;-87
2022/04/08 02:34:54;;;;;;;10.85;2.53;;;5.40;99.90;;;;;;4974279;28;20211;-85
2022/04/08 02:37:20;;;;;;;8.75;2.38;;;5.40;99.90;;;;;;4982775;28;20034;-85
2022/04/08 02:39:45;;;;;;;10.10;2.63;;;5.40;99.90;;;;;;4985426;28;20038;-85
2022/04/08 02:42:11;;;;;;;9.88;1.83;;;5.50;99.90;;;;;;4972060;28;20057;-85
2022/04/08 02:44:36;;;;;;;11.90;2.22;;;5.50;99.90;;;;;;4981136;28;20026;-85
2022/04/08 02:47:02;;;;;;;14.70;2.30;;;5.50;99.90;;;;;;4980348;28;20021;-85
2022/04/08 02:49:28;;;;;;;6.15;2.40;;;5.50;99.90;;;;;;4979739;28;20030;-85
2022/04/08 02:51:53;;;;;;;19.83;4.03;;;5.50;99.90;;;;;;4975102;28;20533;-85
2022/04/08 02:54:19;;;;;;;5.88;1.80;;;5.50;99.90;;;;;;4994424;28;20346;-85
2022/04/08 02:56:44;;;;;;;12.20;2.53;;;5.40;99.90;;;;;;4996284;28;20489;-85
2022/04/08 02:59:10;;;;;;;16.77;2.50;;;5.50;99.90;;;;;;4994454;28;20093;-85
2022/04/08 03:01:36;;;;;;;6.20;1.23;;;5.50;99.90;;;;;;4977524;28;20037;-85
2022/04/08 03:04:02;;;;;;;4.53;1.30;;;5.30;99.90;;;;;;4981750;28;20042;-85
2022/04/08 03:06:27;;;;;;;9.48;2.70;;;5.40;99.90;;;;;;4991419;28;20033;-85
2022/04/08 03:08:53;;;;;;;2.92;1.27;;;5.40;99.90;;;;;;4993725;28;20091;-85
2022/04/08 03:11:19;;;;;;;7.55;1.75;;;5.40;99.90;;;;;;4980232;28;20030;-85
2022/04/08 03:13:44;;;;;;;8.52;1.35;;;5.40;99.90;;;;;;4996039;28;20057;-85
2022/04/08 03:16:10;;;;;;;16.30;3.83;;;5.50;99.90;;;;;;4979494;28;20037;-85
2022/04/08 03:18:35;;;;;;;9.23;2.20;;;5.40;99.90;;;;;;4977444;28;20022;-85
2022/04/08 03:21:01;;;;;;;14.93;2.35;;;5.40;99.90;;;;;;4992349;28;20034;-85
2022/04/08 03:23:26;;;;;;;7.30;1.63;;;5.40;99.90;;;;;;4976234;28;20113;-85
2022/04/08 03:25:52;;;;;;;6.38;1.90;;;5.40;99.90;;;;;;4982574;28;20540;-85
2022/04/08 03:28:17;;;;;;;5.07;1.48;;;5.40;99.90;;;;;;4982190;28;20026;-85
2022/04/08 03:30:43;;;;;;;9.52;1.20;;;5.40;99.90;;;;;;4993560;28;20083;-84
2022/04/08 03:33:09;;;;;;;10.70;2.85;;;5.40;99.90;;;;;;4979048;28;20113;-85
2022/04/08 03:35:34;;;;;;;4.88;1.15;;;5.40;99.90;;;;;;4979531;28;20161;-85
2022/04/08 03:38:00;;;;;;;5.22;1.42;;;5.40;99.90;;;;;;4979884;28;20053;-85
2022/04/08 03:40:26;;;;;;;7.28;1.80;;;5.40;99.90;;;;;;4981844;28;20108;-85
2022/04/08 03:42:51;;;;;;;2.88;0.73;;;5.30;99.90;;;;;;4981463;28;20030;-85
2022/04/08 03:45:17;;;;;;;3.17;1.38;;;5.30;99.90;;;;;;4979933;28;20032;-85
2022/04/08 03:47:42;;;;;;;8.50;1.45;;;5.40;99.90;;;;;;4982193;28;20029;-85
2022/04/08 03:50:08;;;;;;;8.40;1.75;;;5.30;99.90;;;;;;5001223;28;20040;-84
2022/04/08 03:52:33;;;;;;;12.68;2.78;;;5.20;99.90;;;;;;4997679;28;20101;-85
2022/04/08 03:54:59;;;;;;;11.80;1.48;;;5.20;99.90;;;;;;4998170;28;20045;-85
2022/04/08 03:57:25;;;;;;;6.70;1.42;;;5.10;99.90;;;;;;4986112;28;20022;-85
2022/04/08 03:59:51;;;;;;;7.65;1.40;;;4.90;99.90;;;;;;4973082;28;21538;-85
2022/04/08 04:02:17;;;;;;;8.98;1.70;;;5.00;99.90;;;;;;4984338;28;20030;-84
2022/04/08 04:04:42;;;;;;;2.70;1.15;;;5.00;99.90;;;;;;4978258;28;20037;-85
2022/04/08 04:07:08;;;;;;;7.53;1.42;;;5.00;99.90;;;;;;4979465;28;20555;-84
2022/04/08 04:09:33;;;;;;;6.53;1.65;;;5.00;99.90;;;;;;4990864;28;20049;-85
2022/04/08 04:11:59;;;;;;;7.28;1.70;;;5.00;99.90;;;;;;4995063;28;20030;-85
2022/04/08 04:14:24;;;;;;;8.27;1.67;;;5.00;99.90;;;;;;4996028;28;20536;-84
2022/04/08 04:16:50;;;;;;;6.60;1.50;;;5.00;99.90;;;;;;4999712;28;20137;-85
2022/04/08 04:19:17;;;;;;;12.02;1.48;;;5.00;99.90;;;;;;4998598;28;20036;-84
2022/04/08 04:21:42;;;;;;;7.20;1.35;;;4.90;99.90;;;;;;4993101;28;20034;-84
2022/04/08 04:24:08;;;;;;;2.63;0.82;;;4.90;99.90;;;;;;4993336;28;20087;-84
2022/04/08 04:26:33;;;;;;;3.80;1.27;;;5.00;99.90;;;;;;4985442;28;20034;-84
2022/04/08 04:28:59;;;;;;;6.15;1.55;;;4.90;99.90;;;;;;4979419;28;20199;-84
2022/04/08 04:31:26;;;;;;;4.90;1.40;;;4.90;99.90;;;;;;4983201;28;20131;-84
2022/04/08 04:33:51;;;;;;;6.22;1.50;;;4.90;99.90;;;;;;4979521;28;20634;-84
2022/04/08 04:36:17;;;;;;;4.32;1.05;;;4.80;99.90;;;;;;4983721;28;20029;-84
2022/04/08 04:38:42;;;;;;;5.65;1.10;;;4.80;99.90;;;;;;4977989;28;20030;-84
2022/04/08 04:41:09;;;;;;;9.48;2.15;;;4.70;99.90;;;;;;4985310;28;20038;-84
2022/04/08 04:43:35;;;;;;;3.70;1.42;;;4.80;99.90;;;;;;4976013;28;20033;-84
2022/04/08 04:46:03;;;;;;;9.32;1.75;;;4.80;99.90;;;;;;4977603;28;20042;-84
2022/04/08 04:48:29;;;;;;;1.02;0.63;;;4.90;99.90;;;;;;4976092;28;20033;-84
2022/04/08 04:50:56;;;;;;;6.90;1.70;;;4.80;99.90;;;;;;4982214;28;20080;-84
2022/04/08 04:53:22;;;;;;;9.80;2.50;;;4.80;99.90;;;;;;4992220;28;20034;-84
2022/04/08 04:55:47;;;;;;;6.00;1.45;;;4.80;99.90;;;;;;4996241;28;20046;-84
2022/04/08 04:58:13;;;;;;;8.35;1.50;;;4.80;99.90;;;;;;4980328;28;20030;-84
2022/04/08 05:00:38;;;;;;;6.25;1.73;;;4.80;99.90;;;;;;4977867;28;20030;-83
2022/04/08 05:03:05;;;;;;;12.10;1.48;;;4.80;99.90;;;;;;4985166;28;20030;-84
2022/04/08 05:05:31;;;;;;;3.03;0.95;;;4.90;99.90;;;;;;4982244;28;20117;-84
2022/04/08 05:08:03;;;;;;;7.35;1.73;;;4.80;99.90;;;;;;4970730;28;20121;-84
2022/04/08 05:10:30;;;;;;;5.32;0.90;;;4.70;99.90;;;;;;4994644;28;20482;-84
2022/04/08 05:12:55;;;;;;;6.72;1.65;;;4.70;99.90;;;;;;4996631;28;20030;-84
2022/04/08 05:15:21;;;;;;;1.92;1.10;;;4.70;99.90;;;;;;4995743;28;20409;-84
2022/04/08 05:17:46;;;;;;;6.57;1.73;;;4.50;99.90;;;;;;4974461;28;20053;-84
2022/04/08 05:20:12;;;;;;;8.52;1.58;;;4.60;99.90;;;;;;4995073;28;20026;-84
2022/04/08 05:22:38;;;;;;;6.05;1.65;;;4.70;99.90;;;;;;4996470;28;20417;-84
2022/04/08 05:25:04;;;;;;;2.40;1.38;;;4.60;99.90;;;;;;4994996;28;20025;-84
2022/04/08 05:27:41;;;;;;;2.42;0.98;;;4.60;99.90;;;;;;4994394;28;20036;-84
2022/04/08 05:30:12;;;;;;;8.30;1.90;;;4.60;99.90;;;;;;4977242;28;20037;-84
2022/04/08 05:32:38;;;;;;;4.28;1.95;;;4.60;99.90;;;;;;4977826;28;20042;-84
2022/04/08 05:35:04;;;;;;;14.63;3.30;;;4.60;99.90;;;;;;4978122;28;20030;-84
2022/04/08 05:37:29;;;;;;;10.75;3.40;;;4.70;99.90;;;;;;4980416;28;20025;-84
2022/04/08 05:39:55;;;;;;;10.10;3.28;;;4.60;99.90;;;;;;4983407;28;20036;-83
2022/04/08 05:42:21;;;;;;;3.55;1.52;;;4.60;99.90;;;;;;4978027;28;20037;-83
2022/04/08 05:44:47;;;;;;;10.43;3.13;;;4.70;99.90;;;;;;4999051;28;20037;-83
2022/04/08 05:47:12;;;;;;;4.55;2.65;;;4.70;99.90;;;;;;4979614;28;20032;-83
2022/04/08 05:49:38;;;;;;;9.23;3.50;;;4.70;99.90;;;;;;4977975;28;20049;-83
2022/04/08 05:52:04;;;;;;;11.15;3.33;;;4.70;99.90;;;;;;4993719;28;20038;-83
2022/04/08 05:54:30;;;;;;;6.13;1.65;;;4.80;99.90;;;;;;4996879;28;20040;-83
2022/04/08 05:57:00;;;;;;;7.93;3.60;;;4.80;99.90;;;;;;4995519;28;20025;-83
2022/04/08 05:59:29;;;;;;;8.57;3.63;;;4.80;99.90;;;;;;4973010;28;20048;-83
2022/04/08 06:01:54;;;;;;;7.53;3.33;;;4.80;99.90;;;;;;4988594;28;20076;-83
2022/04/08 06:04:21;;;;;;;2.90;2.03;;;4.70;99.90;;;;;;4975017;28;20041;-83
2022/04/08 06:06:46;;;;;;;1.98;0.70;;;4.80;99.90;;;;;;4990724;28;20037;-83
2022/04/08 06:09:12;;;;;;;11.90;3.15;;;4.80;99.90;;;;;;4995808;28;20055;-83
2022/04/08 06:11:37;;;;;;;11.63;3.65;;;5.00;99.90;;;;;;4975816;28;20049;-83
2022/04/08 06:14:03;;;;;;;7.75;2.55;;;5.10;99.90;;;;;;4992803;28;20042;-84
2022/04/08 06:16:29;;;;;;;6.35;1.65;;;5.20;99.90;;;;;;4976076;28;20144;-84
2022/04/08 06:18:55;;;;;;;1.38;0.80;;;5.10;99.90;;;;;;4982271;28;20549;-84
2022/04/08 06:21:21;;;;;;;8.48;4.28;;;5.20;99.90;;;;;;4985577;28;20029;-84
2022/04/08 06:23:47;;;;;;;10.40;2.65;;;5.30;99.90;;;;;;4995853;28;20041;-84
2022/04/08 06:26:14;;;;;;;5.50;2.40;;;5.40;99.90;;;;;;4994424;28;20037;-84
2022/04/08 06:28:40;;;;;;;2.60;1.25;;;5.40;99.90;;;;;;4998549;28;20041;-83
2022/04/08 06:31:06;;;;;;;9.65;3.55;;;5.40;99.90;;;;;;4979651;28;20393;-84
2022/04/08 06:33:31;;;;;;;11.27;3.78;;;5.50;99.90;;;;;;4975935;28;20093;-84
2022/04/08 06:35:59;;;;;;;9.73;3.22;;;5.50;99.90;;;;;;4972145;28;20037;-83
2022/04/08 06:38:24;;;;;;;15.88;4.20;;;5.60;99.90;;;;;;4977825;28;20422;-84
2022/04/08 06:40:50;;;;;;;12.43;4.50;;;5.70;99.90;;;;;;4992730;28;20044;-83
2022/04/08 06:43:15;;;;;;;9.27;3.90;;;5.70;99.90;;;;;;4979732;28;20037;-83
2022/04/08 06:45:41;;;;;;;10.90;4.75;;;5.80;99.90;;;;;;4970743;28;20034;-83
2022/04/08 06:48:07;;;;;;;15.75;5.60;;;5.90;99.90;;;;;;4978010;28;20553;-83
2022/04/08 06:50:33;;;;;;;3.28;1.85;;;6.00;99.90;;;;;;4996538;28;20060;-83
2022/04/08 06:53:02;;;;;;;6.38;3.78;;;6.10;99.90;;;;;;4992754;28;20021;-83
2022/04/08 06:55:28;;;;;;;9.43;4.80;;;6.10;99.90;;;;;;4979877;28;20040;-83
2022/04/08 06:57:54;;;;;;;6.30;4.45;;;6.20;99.90;;;;;;4984045;28;20268;-83
2022/04/08 07:00:20;;;;;;;12.23;6.57;;;6.30;99.90;;;;;;4989841;28;20026;-83
2022/04/08 07:02:46;;;;;;;13.77;6.95;;;6.30;99.90;;;;;;5000945;28;20034;-83
2022/04/08 07:05:11;;;;;;;13.75;5.40;;;6.40;99.90;;;;;;4978406;28;20103;-83
2022/04/08 07:07:38;;;;;;;16.00;4.40;;;6.50;99.90;;;;;;5009659;28;20450;-84
2022/04/08 07:10:04;;;;;;;8.30;5.18;;;6.50;99.90;;;;;;4996167;28;20508;-84
2022/04/08 07:12:30;;;;;;;12.05;5.85;;;6.60;99.90;;;;;;4988367;28;20121;-84
2022/04/08 07:14:55;;;;;;;7.97;3.20;;;6.60;99.90;;;;;;4997493;28;20439;-84
2022/04/08 07:17:31;;;;;;;9.10;5.20;;;6.70;99.90;;;;;;4982603;28;21130;-84
2022/04/08 07:19:57;;;;;;;14.35;3.92;;;6.80;99.90;;;;;;4977686;28;20026;-84
2022/04/08 07:22:26;;;;;;;11.48;5.63;;;6.80;99.90;;;;;;4994416;28;20030;-84
2022/04/08 07:24:52;;;;;;;3.35;1.80;;;6.90;99.90;;;;;;4994892;28;20040;-83
2022/04/08 07:27:18;;;;;;;11.30;4.85;;;7.00;99.90;;;;;;4999179;28;20481;-83
2022/04/08 07:29:44;;;;;;;16.05;7.50;;;7.10;99.90;;;;;;4988134;28;20590;-83
2022/04/08 07:32:20;;;;;;;5.00;3.13;;;7.20;99.90;;;;;;4983492;28;20036;-83
2022/04/08 07:34:47;;;;;;;6.22;4.53;;;7.30;99.90;;;;;;4981141;28;20041;-83
2022/04/08 07:37:12;;;;;;;9.32;4.75;;;7.30;99.90;;;;;;4985158;28;20034;-83
2022/04/08 07:39:44;;;;;;;10.65;4.43;;;7.40;99.90;;;;;;4995669;28;20535;-82
2022/04/08 07:42:09;;;;;;;8.32;5.57;;;7.50;99.90;;;;;;4995029;28;20033;-82
2022/04/08 07:44:36;;;;;;;13.30;6.70;;;7.60;99.90;;;;;;4972290;28;20044;-82
2022/04/08 07:47:02;;;;;;;9.23;4.22;;;7.80;99.90;;;;;;4981404;28;20038;-82
2022/04/08 07:49:28;;;;;;;9.48;4.43;;;7.80;99.90;;;;;;4981272;28;20038;-82
2022/04/08 07:51:53;;;;;;;6.22;3.58;;;7.90;99.90;;;;;;5000641;28;20029;-82
2022/04/08 07:54:19;;;;;;;11.93;6.65;;;7.90;99.90;;;;;;4977823;28;20121;-82
2022/04/08 07:56:44;;;;;;;8.90;5.90;;;8.10;99.90;;;;;;4992037;28;20038;-82
2022/04/08 07:59:10;;;;;;;13.43;9.35;;;8.10;99.90;;;;;;4981271;28;20029;-82
2022/04/08 08:01:35;;;;;;;14.70;8.00;;;8.40;99.90;;;;;;4977063;28;20063;-82
2022/04/08 08:04:01;;;;;;;6.40;3.70;;;8.40;99.90;;;;;;4997345;28;20080;-82
2022/04/08 08:06:27;;;;;;;13.32;6.85;;;8.40;99.90;;;;;;4981436;28;20018;-82
2022/04/08 08:08:55;;;;;;;11.32;7.68;;;8.50;99.90;;;;;;4974061;28;20049;-81
2022/04/08 08:11:20;;;;;;;10.63;8.70;;;8.60;99.90;;;;;;4975098;28;20041;-82
2022/04/08 08:13:46;;;;;;;10.45;8.27;;;8.70;99.90;;;;;;5000519;28;20038;-82
2022/04/08 08:16:11;;;;;;;10.25;5.45;;;8.80;99.90;;;;;;4997478;28;20061;-82
2022/04/08 08:18:37;;;;;;;11.43;7.85;;;8.90;99.90;;;;;;4995246;28;20120;-82
2022/04/08 08:21:03;;;;;;;7.18;4.28;;;8.90;99.90;;;;;;4981275;28;20026;-82
2022/04/08 08:23:28;;;;;;;9.73;6.95;;;9.00;99.90;;;;;;4977091;28;20030;-82
2022/04/08 08:25:55;;;;;;;11.02;7.57;;;9.00;99.90;;;;;;4992686;28;20486;-82
2022/04/08 08:28:22;;;;;;;9.35;6.88;;;8.90;99.90;;;;;;4978690;28;20033;-82
2022/04/08 08:30:47;;;;;;;10.45;7.78;;;9.10;99.90;;;;;;4988743;28;20034;-82
2022/04/08 08:33:13;;;;;;;10.07;7.20;;;9.20;99.90;;;;;;4998584;28;20033;-82
2022/04/08 08:35:39;;;;;;;12.95;8.98;;;9.30;99.90;;;;;;4999123;28;20044;-81
2022/04/08 08:38:04;;;;;;;11.20;7.20;;;9.50;99.90;;;;;;4993654;28;20649;-81
2022/04/08 08:40:33;;;;;;;10.23;7.53;;;9.50;99.90;;;;;;4994560;28;20068;-81
2022/04/08 08:43:00;;;;;;;8.85;4.45;;;9.40;99.90;;;;;;4986932;28;20394;-82
2022/04/08 08:45:32;;;;;;;10.35;6.95;;;9.60;99.90;;;;;;4984969;28;20026;-82
2022/04/08 08:47:59;;;;;;;7.80;6.28;;;9.80;99.90;;;;;;4988498;28;20116;-82
2022/04/08 08:50:25;;;;;;;9.60;6.57;;;9.80;99.90;;;;;;4989366;28;20513;-82
2022/04/08 08:52:51;;;;;;;10.82;6.97;;;9.90;99.90;;;;;;4973427;28;20033;-82
2022/04/08 08:55:16;;;;;;;9.40;5.43;;;9.90;99.90;;;;;;4984492;28;20044;-82
2022/04/08 08:57:43;;;;;;;9.05;4.82;;;10.10;99.90;;;;;;4979406;28;20413;-83
2022/04/08 09:00:13;;;;;;;3.63;2.55;;;10.00;99.90;;;;;;4998596;28;20071;-82
2022/04/08 09:02:39;;;;;;;9.18;5.50;;;10.10;99.90;;;;;;4978239;28;20116;-82
2022/04/08 09:05:16;;;;;;;6.50;5.15;;;10.00;99.90;;;;;;5000228;28;20026;-82
2022/04/08 09:07:42;;;;;;;7.93;4.65;;;10.00;99.90;;;;;;4992017;28;20050;-82
2022/04/08 09:10:07;;;;;;;7.78;4.43;;;10.10;99.90;;;;;;4977177;28;20072;-82
2022/04/08 09:12:33;;;;;;;8.70;4.68;;;10.10;99.90;;;;;;4995331;28;20791;-82
2022/04/08 09:14:59;;;;;;;9.25;5.10;;;9.80;99.90;;;;;;4984745;28;20124;-82
2022/04/08 09:17:27;;;;;;;9.20;4.22;;;9.70;99.90;;;;;;4981579;28;20040;-82
2022/04/08 09:19:55;;;;;;;9.10;4.63;;;9.90;99.90;;;;;;4997560;28;20474;-82
2022/04/08 09:22:21;;;;;;;9.95;4.63;;;10.00;99.90;;;;;;4980197;28;20037;-82
2022/04/08 09:24:47;;;;;;;2.55;2.05;;;9.70;99.90;;;;;;4979074;28;20133;-82
2022/04/08 09:27:13;;;;;;;5.25;3.85;;;10.10;99.90;;;;;;4985567;28;20402;-82
2022/04/08 09:29:43;;;;;;;7.75;3.95;;;10.60;99.90;;;;;;4992262;28;20033;-82
2022/04/08 09:32:09;;;;;;;6.55;4.03;;;10.80;99.90;;;;;;4985258;28;20033;-82
2022/04/08 09:34:35;;;;;;;4.57;3.58;;;11.00;99.90;;;;;;4981477;28;20030;-82
2022/04/08 09:37:15;;;;;;;6.03;2.55;;;10.90;99.90;;;;;;4992111;28;20099;-82
2022/04/08 09:40:04;;;;;;;4.35;3.00;;;10.30;99.90;;;;;;4985916;28;20041;-82
2022/04/08 09:42:43;;;;;;;4.35;3.17;;;10.80;99.90;;;;;;4994888;28;20034;-82
2022/04/08 09:45:09;;;;;;;6.53;3.15;;;11.10;99.90;;;;;;4983683;28;20040;-82
2022/04/08 09:47:36;;;;;;;4.93;3.33;;;10.90;99.90;;;;;;4976996;28;20049;-82
2022/04/08 09:50:01;;;;;;;4.28;2.30;;;11.00;99.90;;;;;;4995671;28;20108;-82
2022/04/08 09:52:27;;;;;;;8.90;3.83;;;11.10;99.90;;;;;;4981567;28;20029;-82
2022/04/08 09:54:53;;;;;;;2.15;1.38;;;11.80;99.90;;;;;;4965884;28;20770;-82
2022/04/08 09:57:18;;;;;;;3.70;2.53;;;11.60;99.90;;;;;;4981140;28;20061;-82
2022/04/08 09:59:46;;;;;;;4.28;2.90;;;11.50;99.90;;;;;;4984101;28;20265;-82
2022/04/08 10:02:14;;;;;;;3.95;2.05;;;12.00;99.90;;;;;;4981323;28;20030;-83
2022/04/08 10:04:40;;;;;;;4.57;2.33;;;12.00;99.90;;;;;;4983308;28;20038;-82
2022/04/08 10:07:05;;;;;;;4.88;3.13;;;12.10;99.90;;;;;;4993466;28;20844;-82
2022/04/08 10:09:33;;;;;;;7.28;2.13;;;12.00;99.90;;;;;;4974346;28;20152;-82
2022/04/08 10:12:22;;;;;;;5.65;2.25;;;11.70;99.90;;;;;;4979944;28;20038;-82
2022/04/08 10:14:50;;;;;;;4.13;2.42;;;11.70;99.90;;;;;;4994148;28;20069;-82
2022/04/08 10:17:17;;;;;;;7.43;2.28;;;12.30;99.90;;;;;;4997800;28;20026;-82
2022/04/08 10:19:43;;;;;;;4.85;2.00;;;12.60;99.90;;;;;;4982544;28;20494;-82
2022/04/08 10:22:16;;;;;;;5.38;1.70;;;12.90;99.90;;;;;;4979603;28;20052;-82
2022/04/08 10:24:54;;;;;;;5.80;2.15;;;13.10;99.90;;;;;;4979628;28;20037;-82
2022/04/08 10:27:34;;;;;;;10.38;3.25;;;12.80;99.90;;;;;;4973012;28;20589;-82
2022/04/08 10:30:11;;;;;;;7.57;1.83;;;13.00;99.90;;;;;;4974441;28;20061;-83
2022/04/08 10:32:41;;;;;;;5.93;1.33;;;13.20;99.90;;;;;;4975091;28;20132;-83
2022/04/08 10:35:17;;;;;;;2.72;0.63;;;12.70;99.90;;;;;;4996480;28;20032;-83
2022/04/08 10:37:54;;;;;;;1.73;1.10;;;12.60;99.90;;;;;;4992911;28;20029;-83
2022/04/08 10:40:20;;;;;;;3.78;1.30;;;12.60;99.90;;;;;;4984455;28;20553;-83
2022/04/08 10:42:58;;;;;;;3.00;1.15;;;12.70;99.90;;;;;;4977200;28;20056;-83
2022/04/08 10:45:24;;;;;;;1.50;0.80;;;12.90;99.90;;;;;;4998790;28;20200;-82
2022/04/08 10:47:57;;;;;;;2.17;0.88;;;13.00;99.90;;;;;;4977070;28;20540;-83
2022/04/08 10:50:27;;;;;;;2.97;0.85;;;12.50;99.90;;;;;;4973615;28;20033;-83
2022/04/08 10:53:08;;;;;;;3.13;1.17;;;12.90;99.90;;;;;;4989061;28;20462;-83
2022/04/08 10:55:47;;;;;;;3.88;1.20;;;12.50;99.90;;;;;;4960870;28;20529;-83
2022/04/08 10:58:15;;;;;;;4.60;1.67;;;12.40;99.90;;;;;;4964521;28;20513;-83
2022/04/08 11:00:40;;;;;;;2.08;1.15;;;12.80;99.90;;;;;;4977294;28;20034;-83
2022/04/08 11:03:07;;;;;;;2.53;1.90;;;13.00;99.90;;;;;;4996077;28;20060;-83
2022/04/08 11:05:39;;;;;;;1.33;0.93;;;12.80;99.90;;;;;;4979498;28;20038;-83
2022/04/08 11:08:06;;;;;;;3.65;1.38;;;13.00;99.90;;;;;;4992232;28;20026;-83
2022/04/08 11:10:31;;;;;;;5.10;1.10;;;12.90;99.90;;;;;;4979526;28;20021;-83
2022/04/08 11:13:00;;;;;;;4.25;1.30;;;12.90;99.90;;;;;;4985301;28;20041;-83
2022/04/08 11:15:30;;;;;;;5.90;1.88;;;12.70;99.90;;;;;;4975773;28;20100;-83
2022/04/08 11:17:57;;;;;;;4.28;1.83;;;12.90;99.90;;;;;;4978416;28;20030;-83
2022/04/08 11:20:23;;;;;;;4.25;2.03;;;12.80;99.90;;;;;;4981538;28;20087;-83
2022/04/08 11:22:50;;;;;;;7.38;2.10;;;12.90;99.90;;;;;;4981327;28;20034;-83
2022/04/08 11:25:24;;;;;;;2.05;1.48;;;12.50;99.90;;;;;;4982025;28;20026;-83
2022/04/08 11:28:07;;;;;;;2.63;2.00;;;12.70;99.90;;;;;;4990862;28;20026;-83
2022/04/08 11:30:34;;;;;;;3.30;2.28;;;13.10;99.90;;;;;;4970838;28;20030;-83
2022/04/08 11:33:00;;;;;;;3.65;2.40;;;12.90;99.90;;;;;;4995873;28;20030;-83
2022/04/08 11:35:29;;;;;;;5.57;2.20;;;13.00;99.90;;;;;;4976067;28;20358;-83
2022/04/08 11:37:58;;;;;;;1.55;1.27;;;13.00;99.90;;;;;;4980675;28;20033;-83
2022/04/08 11:40:24;;;;;;;2.65;2.25;;;12.80;99.90;;;;;;4981052;28;20030;-85
2022/04/08 11:42:49;;;;;;;3.10;2.03;;;12.80;99.90;;;;;;4996956;28;20084;-83
2022/04/08 11:45:18;;;;;;;2.38;1.50;;;12.30;99.90;;;;;;5000316;28;20025;-83
2022/04/08 11:47:47;;;;;;;5.45;1.90;;;12.90;99.90;;;;;;4982284;28;20109;-83
2022/04/08 11:50:13;;;;;;;4.32;2.17;;;12.80;99.90;;;;;;4981128;28;20517;-83
2022/04/08 11:52:38;;;;;;;4.50;2.05;;;12.40;99.90;;;;;;4988309;28;20053;-83
2022/04/08 11:55:08;;;;;;;1.85;1.75;;;12.80;99.90;;;;;;4980848;28;20190;-83
2022/04/08 11:57:34;;;;;;;5.68;1.60;;;13.20;99.90;;;;;;4970059;28;20026;-83
2022/04/08 12:00:01;;;;;;;4.75;2.08;;;13.30;99.90;;;;;;4994405;28;20494;-83
2022/04/08 12:02:27;;;;;;;4.18;1.48;;;13.60;99.90;;;;;;4984174;28;24291;-83
2022/04/08 12:04:53;;;;;;;3.85;2.10;;;13.70;99.90;;;;;;4999841;28;20088;-83
2022/04/08 12:07:25;;;;;;;6.50;1.73;;;13.40;99.90;;;;;;4999530;28;20029;-83
2022/04/08 12:09:54;;;;;;;2.80;1.60;;;13.60;99.90;;;;;;4997164;28;20084;-83
2022/04/08 12:12:29;;;;;;;5.10;2.03;;;13.60;99.90;;;;;;4986463;28;20034;-83
2022/04/08 12:14:55;;;;;;;2.25;1.60;;;13.70;99.90;;;;;;4982011;28;20430;-83
2022/04/08 12:17:21;;;;;;;5.43;1.60;;;13.80;99.90;;;;;;5005043;28;20124;-84
2022/04/08 12:19:51;;;;;;;3.53;1.70;;;13.80;99.90;;;;;;4997489;28;20394;-83
2022/04/08 12:22:17;;;;;;;3.55;1.48;;;13.20;99.90;;;;;;4999884;28;20033;-83
2022/04/08 12:24:42;;;;;;;4.43;1.30;;;13.80;99.90;;;;;;4983794;28;20034;-83
2022/04/08 12:27:12;;;;;;;1.77;1.23;;;13.80;99.90;;;;;;4999721;28;20065;-84
2022/04/08 12:29:39;;;;;;;3.92;1.77;;;14.10;99.90;;;;;;4986992;28;20397;-84
2022/04/08 12:32:11;;;;;;;6.80;1.80;;;14.10;99.90;;;;;;4988821;28;20030;-84
2022/04/08 12:34:36;;;;;;;4.15;1.50;;;14.40;99.90;;;;;;4985655;28;20088;-84
2022/04/08 12:37:02;;;;;;;2.65;1.40;;;14.00;99.90;;;;;;4983119;28;20457;-83
2022/04/08 12:39:28;;;;;;;3.25;1.02;;;14.10;99.90;;;;;;4981746;28;20556;-84
2022/04/08 12:41:58;;;;;;;2.97;1.60;;;13.90;99.90;;;;;;4999122;28;20552;-84
2022/04/08 12:44:23;;;;;;;4.20;2.30;;;13.90;99.90;;;;;;4988423;28;20439;-84
2022/04/08 12:46:51;;;;;;;4.18;1.88;;;14.00;99.90;;;;;;4994303;28;20034;-83
2022/04/08 12:49:17;;;;;;;4.20;1.88;;;14.10;99.90;;;;;;4993641;28;20037;-83
2022/04/08 12:51:42;;;;;;;3.97;1.83;;;14.10;99.90;;;;;;4980618;28;20080;-84